Time;durP1;ratioP1;P1;durP2;ratioP2;P2;SDS_P1;SDS_P2;PMS_P1;PMS_P2;Temp;Humidity;BMP_temperature;BMP_pressure;BME280_temperature;BME280_humidity;BME280_pressure;Samples;Min_cycle;Max_cycle;Signal;HPM_P1;HPM_P2
2021/04/12 00:01:21;;;;;;;6.10;5.80;;;16.30;89.90;;;;;;5071842;28;20029;-59
2021/04/12 00:04:02;;;;;;;6.10;5.70;;;16.30;90.80;;;;;;5072763;28;20049;-59
2021/04/12 00:06:46;;;;;;;6.93;6.30;;;16.10;89.40;;;;;;5072843;28;20024;-59
2021/04/12 00:09:26;;;;;;;6.80;6.13;;;16.10;90.00;;;;;;5072851;28;20362;-59
2021/04/12 00:12:14;;;;;;;6.55;6.05;;;16.10;90.20;;;;;;5072853;28;20048;-59
2021/04/12 00:14:49;;;;;;;7.82;7.22;;;16.20;89.80;;;;;;5072790;28;20032;-59
2021/04/12 00:17:25;;;;;;;7.35;6.80;;;16.30;90.30;;;;;;5072827;28;20087;-58
2021/04/12 00:19:58;;;;;;;6.60;6.10;;;16.30;90.00;;;;;;5071474;28;20028;-58
2021/04/12 00:22:49;;;;;;;5.95;5.65;;;16.60;90.10;;;;;;5072583;28;20489;-59
2021/04/12 00:25:28;;;;;;;6.97;6.28;;;16.50;90.10;;;;;;5072587;28;20106;-58
2021/04/12 00:28:30;;;;;;;6.88;6.20;;;16.80;90.40;;;;;;5072558;28;20034;-59
2021/04/12 00:31:05;;;;;;;6.82;6.22;;;16.90;90.80;;;;;;5072715;28;20023;-60
2021/04/12 00:33:43;;;;;;;6.93;6.38;;;17.00;90.10;;;;;;5072605;28;20440;-59
2021/04/12 00:36:54;;;;;;;6.82;6.10;;;17.20;89.70;;;;;;5072603;28;20021;-60
2021/04/12 00:39:35;;;;;;;;;;;17.00;90.00;;;;;;5072881;28;20037;-59
2021/04/12 00:42:39;;;;;;;6.72;6.22;;;16.80;89.40;;;;;;5072422;28;20384;-59
2021/04/12 00:45:31;;;;;;;6.60;6.20;;;16.80;89.40;;;;;;5072610;28;20055;-60
2021/04/12 00:48:23;;;;;;;6.93;6.43;;;16.80;90.30;;;;;;5072517;28;20024;-59
2021/04/12 00:51:16;;;;;;;6.95;6.35;;;17.00;89.70;;;;;;5073838;28;20412;-59
2021/04/12 00:54:05;;;;;;;6.45;6.00;;;17.30;90.70;;;;;;5076237;28;20029;-58
2021/04/12 00:56:35;;;;;;;6.65;6.05;;;17.50;90.10;;;;;;5076124;28;20021;-59
2021/04/12 00:59:12;;;;;;;6.75;6.10;;;17.60;90.00;;;;;;5075988;28;20028;-58
2021/04/12 01:01:55;;;;;;;6.82;6.18;;;17.80;90.10;;;;;;5076023;28;20111;-59
2021/04/12 01:04:57;;;;;;;7.18;6.57;;;18.00;88.20;;;;;;5075978;28;20059;-58
2021/04/12 01:07:30;;;;;;;7.47;6.93;;;17.80;88.80;;;;;;5076053;28;20469;-58
2021/04/12 01:10:16;;;;;;;7.00;6.50;;;18.20;89.30;;;;;;5076063;28;20406;-58
2021/04/12 01:13:04;;;;;;;6.72;6.13;;;18.10;88.20;;;;;;5075853;28;20046;-59
2021/04/12 01:15:53;;;;;;;6.97;5.70;;;17.70;89.20;;;;;;5075854;28;20020;-58
2021/04/12 01:18:56;;;;;;;15.35;6.68;;;18.00;89.80;;;;;;5075879;28;20085;-59
2021/04/12 01:22:00;;;;;;;6.60;6.10;;;18.00;89.90;;;;;;5075476;28;20028;-59
2021/04/12 01:24:45;;;;;;;6.30;5.70;;;18.20;90.10;;;;;;5075488;28;20020;-59
2021/04/12 01:27:43;;;;;;;6.80;6.30;;;18.20;87.30;;;;;;5075679;28;20045;-59
2021/04/12 01:30:40;;;;;;;7.60;6.85;;;18.30;90.00;;;;;;5075451;28;20040;-58
2021/04/12 01:33:37;;;;;;;7.35;6.85;;;18.60;88.90;;;;;;5075513;28;20062;-59
2021/04/12 01:36:16;;;;;;;7.28;6.68;;;18.90;88.60;;;;;;5075495;28;20115;-59
2021/04/12 01:38:57;;;;;;;7.45;6.80;;;19.20;88.30;;;;;;5075221;28;20044;-60
2021/04/12 01:41:49;;;;;;;7.28;6.70;;;19.30;86.90;;;;;;5074019;28;20032;-59
2021/04/12 01:44:27;;;;;;;7.30;6.70;;;19.50;87.60;;;;;;5075255;28;20042;-59
2021/04/12 01:47:13;;;;;;;7.07;6.50;;;19.10;86.90;;;;;;5075637;28;20066;-59
2021/04/12 01:49:52;;;;;;;6.95;6.40;;;19.00;87.60;;;;;;5075112;28;20059;-59
2021/04/12 01:52:43;;;;;;;7.30;6.70;;;19.00;88.60;;;;;;5075135;28;20078;-59
2021/04/12 01:55:13;;;;;;;7.20;6.60;;;19.30;87.80;;;;;;5075201;28;20024;-60
2021/04/12 01:58:08;;;;;;;7.43;6.75;;;19.30;87.30;;;;;;5075012;28;20031;-58
2021/04/12 02:00:50;;;;;;;7.07;6.47;;;19.10;87.10;;;;;;5074954;28;20054;-59
2021/04/12 02:03:38;;;;;;;6.35;5.90;;;18.90;87.30;;;;;;5074136;28;20066;-58
2021/04/12 02:06:20;;;;;;;6.68;6.10;;;19.40;87.70;;;;;;5074900;28;20021;-58
2021/04/12 02:09:38;;;;;;;6.88;6.28;;;19.40;86.40;;;;;;5075295;28;20020;-58
2021/04/12 02:12:26;;;;;;;6.75;6.15;;;19.50;86.50;;;;;;5048915;28;20457;-58
2021/04/12 02:15:14;;;;;;;6.93;6.32;;;19.40;88.80;;;;;;5074615;28;20389;-58
2021/04/12 02:18:11;;;;;;;6.68;6.07;;;19.80;85.40;;;;;;5073976;28;20109;-58
2021/04/12 02:21:03;;;;;;;6.72;6.05;;;19.80;86.40;;;;;;5074554;28;20397;-59
2021/04/12 02:23:41;;;;;;;8.18;6.20;;;19.80;85.60;;;;;;5074537;28;20048;-59
2021/04/12 02:26:14;;;;;;;8.15;7.50;;;19.80;85.80;;;;;;5074452;28;20020;-60
2021/04/12 02:29:12;;;;;;;11.15;7.97;;;20.00;87.20;;;;;;5074382;28;20021;-60
2021/04/12 02:31:45;;;;;;;6.97;6.18;;;19.90;87.50;;;;;;5074612;28;20405;-59
2021/04/12 02:34:30;;;;;;;6.72;6.22;;;20.20;86.00;;;;;;5074424;28;20423;-60
2021/04/12 02:37:13;;;;;;;6.80;6.20;;;20.20;85.80;;;;;;5074466;28;20031;-59
2021/04/12 02:40:12;;;;;;;6.95;6.22;;;20.00;86.00;;;;;;5074074;28;20123;-60
2021/04/12 02:43:10;;;;;;;6.55;6.15;;;19.60;84.70;;;;;;5074033;28;20028;-59
2021/04/12 02:46:10;;;;;;;6.45;5.93;;;19.90;86.60;;;;;;5074246;28;20392;-60
2021/04/12 02:48:57;;;;;;;;;;;20.00;86.40;;;;;;5074539;28;20020;-58
2021/04/12 02:52:01;;;;;;;6.97;6.57;;;20.10;84.60;;;;;;5073842;28;19904;-58
2021/04/12 02:54:59;;;;;;;6.70;6.13;;;20.10;84.50;;;;;;5074133;28;20388;-59
2021/04/12 02:57:46;;;;;;;7.35;6.57;;;19.80;83.90;;;;;;5073873;28;20033;-59
2021/04/12 03:00:38;;;;;;;7.90;7.30;;;20.30;85.90;;;;;;5073697;28;20082;-58
2021/04/12 03:03:11;;;;;;;7.47;6.93;;;20.50;86.60;;;;;;5073658;28;20017;-58
2021/04/12 03:06:13;;;;;;;6.90;6.30;;;20.20;83.60;;;;;;5073960;28;20051;-59
2021/04/12 03:09:12;;;;;;;7.10;6.40;;;19.90;84.20;;;;;;5073664;28;20070;-58
2021/04/12 03:12:16;;;;;;;7.15;6.55;;;20.20;85.20;;;;;;5050312;28;20435;-58
2021/04/12 03:15:18;;;;;;;7.10;6.60;;;20.60;86.10;;;;;;5073347;28;20387;-59
2021/04/12 03:17:52;;;;;;;7.10;6.47;;;20.20;83.80;;;;;;5073351;28;20024;-60
2021/04/12 03:20:44;;;;;;;5.95;5.40;;;20.30;86.00;;;;;;5073388;28;20081;-59
2021/04/12 03:23:22;;;;;;;7.13;6.28;;;20.50;83.50;;;;;;5073470;28;20481;-59
2021/04/12 03:26:08;;;;;;;8.25;7.55;;;19.90;85.30;;;;;;5073295;28;20129;-59
2021/04/12 03:28:52;;;;;;;7.80;7.15;;;19.90;84.70;;;;;;5073234;28;20036;-59
2021/04/12 03:31:56;;;;;;;6.50;5.90;;;20.20;87.40;;;;;;5073082;28;20025;-59
2021/04/12 03:34:29;;;;;;;6.57;5.93;;;20.60;85.10;;;;;;5073281;28;20025;-60
2021/04/12 03:37:05;;;;;;;7.10;6.40;;;20.30;83.40;;;;;;5073468;28;20032;-59
2021/04/12 03:39:53;;;;;;;6.60;6.10;;;20.50;85.70;;;;;;5072973;28;20382;-59
2021/04/12 03:42:58;;;;;;;6.43;5.93;;;20.70;82.60;;;;;;5072912;28;20107;-59
2021/04/12 03:46:12;;;;;;;7.30;6.63;;;20.30;83.30;;;;;;5072757;28;20051;-59
2021/04/12 03:48:58;;;;;;;7.03;6.43;;;20.90;85.70;;;;;;5070067;28;20037;-59
2021/04/12 03:51:52;;;;;;;6.93;6.35;;;21.20;83.40;;;;;;5072894;28;20024;-59
2021/04/12 03:54:41;;;;;;;7.22;6.63;;;21.10;81.80;;;;;;5072994;28;20362;-58
2021/04/12 03:57:38;;;;;;;9.07;7.00;;;21.30;83.00;;;;;;5072994;28;20485;-59
2021/04/12 04:00:14;;;;;;;9.88;6.70;;;20.90;81.90;;;;;;5072915;28;20029;-60
2021/04/12 04:03:38;;;;;;;7.93;6.35;;;20.80;83.30;;;;;;5072799;28;20028;-58
2021/04/12 04:06:21;;;;;;;7.53;6.57;;;21.00;81.80;;;;;;5010918;28;20038;-59
2021/04/12 04:09:12;;;;;;;6.68;6.18;;;20.90;84.60;;;;;;5011147;28;20037;-59
2021/04/12 04:12:25;;;;;;;7.95;6.78;;;20.40;83.60;;;;;;5057330;28;20037;-59
2021/04/12 04:15:18;;;;;;;6.63;6.03;;;20.60;84.30;;;;;;5072822;28;20025;-59
2021/04/12 04:17:55;;;;;;;7.38;6.72;;;21.00;83.40;;;;;;5072277;28;20468;-57
2021/04/12 04:20:50;;;;;;;6.55;6.05;;;20.60;82.90;;;;;;5072920;28;20021;-58
2021/04/12 04:23:55;;;;;;;6.60;6.00;;;20.70;84.20;;;;;;5072692;28;20025;-59
2021/04/12 04:26:46;;;;;;;6.38;5.72;;;20.50;83.00;;;;;;5075076;28;20021;-60
2021/04/12 04:29:27;;;;;;;;;;;20.50;81.10;;;;;;5077122;28;20051;-59
2021/04/12 04:32:29;;;;;;;7.32;6.63;;;20.70;83.30;;;;;;5076803;28;20276;-60
2021/04/12 04:35:27;;;;;;;7.63;5.80;;;20.90;82.20;;;;;;5076597;28;20032;-59
2021/04/12 04:38:23;;;;;;;6.07;5.50;;;20.80;83.70;;;;;;5076414;28;20036;-59
2021/04/12 04:40:53;;;;;;;7.70;6.93;;;21.00;82.30;;;;;;5076451;28;20049;-59
2021/04/12 04:43:51;;;;;;;7.22;6.45;;;20.60;83.30;;;;;;5076439;28;20021;-59
2021/04/12 04:46:36;;;;;;;7.85;5.85;;;20.20;85.10;;;;;;5076380;28;20021;-59
2021/04/12 04:49:48;;;;;;;6.25;5.65;;;20.70;83.90;;;;;;5076236;28;20388;-59
2021/04/12 04:52:16;;;;;;;8.05;7.15;;;20.20;84.30;;;;;;5076258;28;20388;-59
2021/04/12 04:55:07;;;;;;;7.20;6.25;;;20.40;85.50;;;;;;5076339;28;20074;-58
2021/04/12 04:57:55;;;;;;;6.82;6.13;;;20.50;84.90;;;;;;5074962;28;20082;-58
2021/04/12 05:00:49;;;;;;;6.65;5.90;;;20.30;85.70;;;;;;5076209;28;20158;-58
2021/04/12 05:03:51;;;;;;;6.70;6.20;;;20.50;85.30;;;;;;5076039;28;20516;-59
2021/04/12 05:06:55;;;;;;;5.82;5.30;;;20.70;83.50;;;;;;5076035;28;20034;-60
2021/04/12 05:09:34;;;;;;;6.15;5.57;;;20.20;83.60;;;;;;5075834;28;20021;-60
2021/04/12 05:12:22;;;;;;;6.60;6.00;;;20.20;84.00;;;;;;5075792;28;20025;-58
2021/04/12 05:15:40;;;;;;;7.50;6.85;;;20.30;84.00;;;;;;5075957;28;20024;-58
2021/04/12 05:18:41;;;;;;;7.30;6.63;;;20.10;84.10;;;;;;5042011;28;20504;-59
2021/04/12 05:21:32;;;;;;;6.30;5.80;;;19.80;84.90;;;;;;5075770;28;20022;-58
2021/04/12 05:24:08;;;;;;;7.00;6.40;;;20.10;86.40;;;;;;5075708;28;20096;-58
2021/04/12 05:26:59;;;;;;;8.68;7.88;;;20.20;84.10;;;;;;5075699;28;20028;-59
2021/04/12 05:29:25;;;;;;;;;;;20.00;85.00;;;;;;5076214;28;20055;-58
2021/04/12 05:32:01;;;;;;;10.20;6.80;;;19.80;85.20;;;;;;5075609;28;19904;-58
2021/04/12 05:34:51;;;;;;;7.50;6.35;;;19.90;87.30;;;;;;5075716;28;20028;-60
2021/04/12 05:37:29;;;;;;;8.98;8.07;;;20.00;85.00;;;;;;5074233;28;20029;-59
2021/04/12 05:40:14;;;;;;;7.40;6.50;;;20.10;85.80;;;;;;5075389;28;20148;-58
2021/04/12 05:42:59;;;;;;;6.60;6.10;;;20.10;85.00;;;;;;5075464;28;20025;-59
2021/04/12 05:45:44;;;;;;;6.97;6.28;;;19.80;85.00;;;;;;5075303;28;20021;-59
2021/04/12 05:48:30;;;;;;;8.80;7.95;;;19.60;85.70;;;;;;5075541;28;20468;-59
2021/04/12 05:51:38;;;;;;;9.57;6.50;;;19.40;85.40;;;;;;5075154;28;20028;-60
2021/04/12 05:54:37;;;;;;;7.22;6.63;;;19.20;86.00;;;;;;5075220;28;20097;-60
2021/04/12 05:57:25;;;;;;;7.88;7.28;;;19.30;86.80;;;;;;5063499;28;20036;-59
2021/04/12 05:59:58;;;;;;;6.70;6.30;;;19.30;87.00;;;;;;5075206;28;20021;-59
2021/04/12 06:02:26;;;;;;;6.85;6.28;;;19.30;86.60;;;;;;5075069;28;20099;-60
2021/04/12 06:05:20;;;;;;;6.63;6.00;;;19.30;88.30;;;;;;5074858;28;20012;-58
2021/04/12 06:07:59;;;;;;;8.18;7.55;;;19.30;87.10;;;;;;5074839;28;20016;-58
2021/04/12 06:10:51;;;;;;;7.32;6.70;;;19.20;85.40;;;;;;5074918;28;20025;-59
2021/04/12 06:13:27;;;;;;;6.95;6.30;;;19.20;86.20;;;;;;5045405;28;20033;-58
2021/04/12 06:16:18;;;;;;;7.78;6.85;;;19.00;87.80;;;;;;5075179;28;20031;-58
2021/04/12 06:19:12;;;;;;;7.70;6.90;;;19.00;88.10;;;;;;5074784;28;20503;-61
2021/04/12 06:21:45;;;;;;;6.60;5.93;;;18.90;88.70;;;;;;5074533;28;20021;-58
2021/04/12 06:24:18;;;;;;;8.60;7.80;;;18.60;88.50;;;;;;5074537;28;20017;-59
2021/04/12 06:27:11;;;;;;;11.18;7.78;;;18.50;90.20;;;;;;5074605;28;20028;-59
2021/04/12 06:30:12;;;;;;;7.03;6.53;;;18.60;90.00;;;;;;5043210;28;20028;-59
2021/04/12 06:32:48;;;;;;;;;;;18.60;90.50;;;;;;5075022;28;20025;-59
2021/04/12 06:35:51;;;;;;;7.88;7.15;;;18.50;90.00;;;;;;5074364;28;20420;-59
2021/04/12 06:38:46;;;;;;;7.43;6.70;;;18.40;90.70;;;;;;5074088;28;20472;-59
2021/04/12 06:41:43;;;;;;;6.60;5.90;;;18.30;90.30;;;;;;5074221;28;20024;-58
2021/04/12 06:44:40;;;;;;;7.72;7.07;;;18.10;90.90;;;;;;5074263;28;20023;-59
2021/04/12 06:47:42;;;;;;;10.20;6.80;;;18.10;90.80;;;;;;5074093;28;20070;-60
2021/04/12 06:50:47;;;;;;;6.68;5.90;;;18.10;90.80;;;;;;5073718;28;20021;-59
2021/04/12 06:53:35;;;;;;;7.03;6.43;;;17.80;90.70;;;;;;5071364;28;20047;-59
2021/04/12 06:56:18;;;;;;;7.40;6.80;;;17.90;90.60;;;;;;5073809;28;20103;-59
2021/04/12 06:59:06;;;;;;;8.02;6.00;;;17.80;90.60;;;;;;5073944;28;20052;-59
2021/04/12 07:02:08;;;;;;;8.48;7.00;;;17.80;90.40;;;;;;5073736;28;20107;-58
2021/04/12 07:04:35;;;;;;;7.72;6.85;;;17.70;91.30;;;;;;5073503;28;20025;-58
2021/04/12 07:07:20;;;;;;;6.97;6.28;;;17.60;91.00;;;;;;5073712;28;20028;-58
2021/04/12 07:10:17;;;;;;;6.63;6.00;;;17.50;91.30;;;;;;5073643;28;20028;-60
2021/04/12 07:12:50;;;;;;;7.07;6.45;;;17.40;91.40;;;;;;5072451;28;20024;-58
2021/04/12 07:16:01;;;;;;;6.40;5.90;;;17.30;91.30;;;;;;5073449;28;20025;-58
2021/04/12 07:18:49;;;;;;;7.13;6.50;;;17.30;91.60;;;;;;5073508;28;20448;-58
2021/04/12 07:21:52;;;;;;;8.23;6.50;;;17.20;91.40;;;;;;5073321;28;20373;-58
2021/04/12 07:24:51;;;;;;;6.72;6.13;;;17.10;91.10;;;;;;5073380;28;20490;-58
2021/04/12 07:28:00;;;;;;;6.57;5.90;;;17.00;92.70;;;;;;5073285;28;20052;-58
2021/04/12 07:30:48;;;;;;;6.95;6.35;;;16.80;92.30;;;;;;5073287;28;20024;-58
2021/04/12 07:33:33;;;;;;;7.40;6.90;;;16.70;91.90;;;;;;5073254;28;20024;-58
2021/04/12 07:36:19;;;;;;;8.43;6.55;;;16.80;92.60;;;;;;5071831;28;20103;-60
2021/04/12 07:39:10;;;;;;;7.45;6.75;;;16.70;92.80;;;;;;5071630;28;20070;-60
2021/04/12 07:41:58;;;;;;;7.57;6.88;;;16.60;92.70;;;;;;5072939;28;20032;-58
2021/04/12 07:45:01;;;;;;;7.45;6.75;;;16.60;93.00;;;;;;5073121;28;20025;-58
2021/04/12 07:47:58;;;;;;;6.05;5.55;;;16.50;93.20;;;;;;5073025;28;20477;-59
2021/04/12 07:50:49;;;;;;;8.73;5.72;;;16.40;93.40;;;;;;5045992;28;20028;-59
2021/04/12 07:53:50;;;;;;;7.60;7.00;;;16.30;93.70;;;;;;5072922;28;20031;-58
2021/04/12 07:56:48;;;;;;;7.53;6.85;;;16.20;93.70;;;;;;5073155;28;20036;-58
2021/04/12 07:59:33;;;;;;;6.45;5.95;;;16.10;94.20;;;;;;5072831;28;20039;-57
2021/04/12 08:02:17;;;;;;;7.72;6.30;;;16.00;95.70;;;;;;5072442;28;20107;-60
2021/04/12 08:05:17;;;;;;;7.70;6.40;;;16.10;97.70;;;;;;5072913;28;20111;-59
2021/04/12 08:08:21;;;;;;;6.50;5.75;;;16.00;95.50;;;;;;5072821;28;20021;-59
2021/04/12 08:11:14;;;;;;;7.35;5.90;;;15.80;95.80;;;;;;5072787;28;20024;-59
2021/04/12 08:13:41;;;;;;;7.80;5.90;;;15.60;95.90;;;;;;5072740;28;20027;-58
2021/04/12 08:16:27;;;;;;;7.07;6.55;;;15.60;95.50;;;;;;5073068;28;20099;-59
2021/04/12 08:19:22;;;;;;;7.47;5.70;;;15.50;95.50;;;;;;5072805;28;20481;-59
2021/04/12 08:22:08;;;;;;;6.47;5.97;;;15.40;95.60;;;;;;5069510;28;20041;-60
2021/04/12 08:25:15;;;;;;;9.05;6.00;;;15.30;98.00;;;;;;5072333;28;20023;-60
2021/04/12 08:28:07;;;;;;;6.57;6.03;;;15.50;99.90;;;;;;5072811;28;20104;-59
2021/04/12 08:30:55;;;;;;;6.90;5.30;;;15.60;99.30;;;;;;5071416;28;20032;-58
2021/04/12 08:33:58;;;;;;;8.57;6.00;;;15.50;98.30;;;;;;5072553;28;20095;-59
2021/04/12 08:36:50;;;;;;;6.93;5.22;;;15.30;97.20;;;;;;5072632;28;20021;-57
2021/04/12 08:39:28;;;;;;;8.02;6.47;;;15.20;98.00;;;;;;5072481;28;20051;-57
2021/04/12 08:42:17;;;;;;;6.13;5.50;;;15.00;98.70;;;;;;5072628;28;20017;-57
2021/04/12 08:45:21;;;;;;;7.10;6.40;;;14.90;98.50;;;;;;5072506;28;20052;-58
2021/04/12 08:48:12;;;;;;;10.48;7.18;;;14.80;98.70;;;;;;5071393;28;20508;-56
2021/04/12 08:51:12;;;;;;;10.50;8.02;;;14.70;98.50;;;;;;5043370;28;20119;-57
2021/04/12 08:54:00;;;;;;;6.65;6.03;;;14.70;98.00;;;;;;5072281;28;20049;-56
2021/04/12 08:57:04;;;;;;;8.98;6.68;;;14.70;98.60;;;;;;5072406;28;20025;-56
2021/04/12 09:00:09;;;;;;;7.60;6.90;;;14.80;99.90;;;;;;5072297;28;20043;-55
2021/04/12 09:03:17;;;;;;;7.93;7.18;;;14.90;98.50;;;;;;5072136;28;20095;-58
2021/04/12 09:06:21;;;;;;;8.18;7.28;;;14.80;97.90;;;;;;5072195;28;20017;-57
2021/04/12 09:09:19;;;;;;;8.82;7.05;;;14.80;98.50;;;;;;5072269;28;20070;-61
2021/04/12 09:11:49;;;;;;;8.75;7.82;;;14.70;98.40;;;;;;5072248;28;20476;-60
2021/04/12 09:14:56;;;;;;;8.48;7.60;;;14.60;99.00;;;;;;5076201;28;20029;-60
2021/04/12 09:17:44;;;;;;;13.93;8.85;;;14.60;99.00;;;;;;5075941;28;20037;-61
2021/04/12 09:20:41;;;;;;;9.38;8.43;;;14.50;98.90;;;;;;5075689;28;20052;-61
2021/04/12 09:23:32;;;;;;;10.27;7.68;;;14.40;99.30;;;;;;5075664;28;20021;-60
2021/04/12 09:26:29;;;;;;;9.23;8.13;;;14.30;99.60;;;;;;5075330;28;20025;-59
2021/04/12 09:29:20;;;;;;;10.70;9.35;;;14.30;99.90;;;;;;5075460;28;20027;-60
2021/04/12 09:32:24;;;;;;;9.75;8.70;;;14.30;99.90;;;;;;5075566;28;20027;-60
2021/04/12 09:35:11;;;;;;;9.65;8.60;;;14.20;99.90;;;;;;5075460;28;20032;-61
2021/04/12 09:37:57;;;;;;;10.00;8.40;;;14.00;99.90;;;;;;5075287;28;20033;-60
2021/04/12 09:40:27;;;;;;;9.93;8.93;;;13.90;99.90;;;;;;5075166;28;20063;-62
2021/04/12 09:43:12;;;;;;;10.45;9.32;;;13.90;99.90;;;;;;5075121;28;20115;-63
2021/04/12 09:45:55;;;;;;;10.30;8.93;;;13.90;99.90;;;;;;5075222;28;20095;-62
2021/04/12 09:48:32;;;;;;;9.48;8.55;;;13.90;99.90;;;;;;5075251;28;20013;-62
2021/04/12 09:51:30;;;;;;;10.70;9.60;;;13.90;99.90;;;;;;5075238;28;20477;-61
2021/04/12 09:54:16;;;;;;;11.48;9.20;;;13.80;99.90;;;;;;5075036;28;20130;-61
2021/04/12 09:57:16;;;;;;;11.05;10.07;;;13.80;99.90;;;;;;5075229;28;20388;-62
2021/04/12 10:00:17;;;;;;;12.68;9.90;;;13.80;99.90;;;;;;5074891;28;20028;-62
2021/04/12 10:03:20;;;;;;;11.50;10.25;;;13.70;99.90;;;;;;5074843;28;20081;-61
2021/04/12 10:06:08;;;;;;;13.90;10.23;;;13.70;99.90;;;;;;5074875;28;20103;-62
2021/04/12 10:08:56;;;;;;;11.25;10.00;;;13.60;99.90;;;;;;5074739;28;20033;-62
2021/04/12 10:11:39;;;;;;;12.30;10.10;;;13.70;99.90;;;;;;5074815;28;20024;-62
2021/04/12 10:14:14;;;;;;;14.63;11.40;;;13.70;99.90;;;;;;5074811;28;20036;-62
2021/04/12 10:16:48;;;;;;;17.75;12.95;;;13.70;99.90;;;;;;5074740;28;20070;-62
2021/04/12 10:19:23;;;;;;;16.60;12.25;;;13.80;99.90;;;;;;5074461;28;20109;-62
2021/04/12 10:21:55;;;;;;;14.57;12.05;;;13.70;99.90;;;;;;5074513;28;20025;-62
2021/04/12 10:24:48;;;;;;;15.57;12.50;;;13.60;99.90;;;;;;5073877;28;20082;-62
2021/04/12 10:27:32;;;;;;;18.92;12.50;;;13.50;99.90;;;;;;5074501;28;20017;-62
2021/04/12 10:30:09;;;;;;;13.88;12.45;;;13.40;99.90;;;;;;5074698;28;20024;-63
2021/04/12 10:32:51;;;;;;;14.43;11.23;;;13.40;99.90;;;;;;5074638;28;20017;-62
2021/04/12 10:35:33;;;;;;;12.43;11.05;;;13.40;99.90;;;;;;5074443;28;20494;-62
2021/04/12 10:38:18;;;;;;;12.60;11.27;;;13.40;99.90;;;;;;5073348;28;20532;-61
2021/04/12 10:41:23;;;;;;;13.82;10.43;;;13.50;99.90;;;;;;5074384;28;20097;-61
2021/04/12 10:43:54;;;;;;;10.98;9.95;;;13.50;99.90;;;;;;5074182;28;20096;-62
2021/04/12 10:46:23;;;;;;;11.77;9.88;;;13.50;99.90;;;;;;5072897;28;20021;-63
2021/04/12 10:49:10;;;;;;;12.10;10.90;;;13.40;99.90;;;;;;5074221;28;20024;-62
2021/04/12 10:52:01;;;;;;;12.68;10.32;;;13.30;99.90;;;;;;5072899;28;20067;-62
2021/04/12 10:54:50;;;;;;;11.70;9.57;;;13.30;99.90;;;;;;5074266;28;20024;-63
2021/04/12 10:57:26;;;;;;;13.77;9.70;;;13.30;99.90;;;;;;5073934;28;20028;-63
2021/04/12 11:00:36;;;;;;;11.30;9.65;;;13.20;99.90;;;;;;5073985;28;20024;-63
2021/04/12 11:03:24;;;;;;;15.45;10.07;;;13.20;99.90;;;;;;5073616;28;20025;-64
2021/04/12 11:06:14;;;;;;;14.45;10.80;;;13.10;99.90;;;;;;5073966;28;20469;-63
2021/04/12 11:08:54;;;;;;;11.55;10.13;;;13.10;99.90;;;;;;5073895;28;20012;-64
2021/04/12 11:11:26;;;;;;;11.25;10.15;;;13.10;99.90;;;;;;5073714;28;20028;-64
2021/04/12 11:14:03;;;;;;;17.10;10.40;;;13.00;99.90;;;;;;5073548;28;20032;-63
2021/04/12 11:16:45;;;;;;;14.45;11.07;;;12.90;99.90;;;;;;5073515;28;20024;-63
2021/04/12 11:19:51;;;;;;;13.38;10.30;;;12.90;99.90;;;;;;5073724;28;20020;-64
2021/04/12 11:22:25;;;;;;;12.13;9.45;;;12.80;99.90;;;;;;5039630;28;20045;-63
2021/04/12 11:25:11;;;;;;;10.95;9.50;;;12.80;99.90;;;;;;5073417;28;20036;-63
2021/04/12 11:27:56;;;;;;;12.20;9.13;;;12.80;99.90;;;;;;5073390;28;20523;-63
2021/04/12 11:31:04;;;;;;;11.20;9.00;;;12.70;99.90;;;;;;5073383;28;20024;-63
2021/04/12 11:33:40;;;;;;;14.90;8.52;;;12.80;99.90;;;;;;5073527;28;20030;-63
2021/04/12 11:36:16;;;;;;;10.15;8.95;;;12.80;99.90;;;;;;5072190;28;20024;-64
2021/04/12 11:38:53;;;;;;;14.20;9.68;;;12.80;99.90;;;;;;5071788;28;20063;-63
2021/04/12 11:41:50;;;;;;;11.40;9.38;;;12.70;99.90;;;;;;5071759;28;20029;-63
2021/04/12 11:44:39;;;;;;;14.82;10.13;;;12.70;99.90;;;;;;5068076;28;20039;-64
2021/04/12 11:47:36;;;;;;;12.70;10.13;;;12.70;99.90;;;;;;5073198;28;20012;-64
2021/04/12 11:50:33;;;;;;;10.95;9.70;;;12.80;99.90;;;;;;5073191;28;20024;-64
2021/04/12 11:53:23;;;;;;;11.45;10.35;;;12.80;99.90;;;;;;5073118;28;20396;-64
2021/04/12 11:56:23;;;;;;;11.52;10.30;;;12.90;99.90;;;;;;5073104;28;20027;-62
2021/04/12 11:58:52;;;;;;;11.83;10.47;;;12.90;99.90;;;;;;5073202;28;20538;-62
2021/04/12 12:01:47;;;;;;;9.88;8.93;;;12.90;99.90;;;;;;5072945;28;20020;-63
2021/04/12 12:04:26;;;;;;;13.63;10.43;;;12.90;99.90;;;;;;5072961;28;20024;-62
2021/04/12 12:07:11;;;;;;;11.90;9.13;;;12.90;99.90;;;;;;5072995;28;20020;-64
2021/04/12 12:09:47;;;;;;;9.38;8.35;;;13.00;99.90;;;;;;5073038;28;20025;-64
2021/04/12 12:12:20;;;;;;;13.45;8.30;;;13.30;99.90;;;;;;5073069;28;20372;-64
2021/04/12 12:15:11;;;;;;;12.77;8.82;;;13.30;99.90;;;;;;5072927;28;20030;-62
2021/04/12 12:17:58;;;;;;;11.68;9.45;;;13.40;99.90;;;;;;5071763;28;20448;-64
2021/04/12 12:20:43;;;;;;;12.50;9.38;;;13.40;99.90;;;;;;5072788;28;20021;-63
2021/04/12 12:23:24;;;;;;;9.60;8.55;;;13.60;99.90;;;;;;5072571;28;20107;-64
2021/04/12 12:25:52;;;;;;;;;;;13.70;99.90;;;;;;5073256;28;20023;-63
2021/04/12 12:29:11;;;;;;;8.40;7.60;;;13.80;99.90;;;;;;5072768;28;19904;-64
2021/04/12 12:31:50;;;;;;;12.52;8.98;;;13.80;99.90;;;;;;5047506;28;20035;-64
2021/04/12 12:34:41;;;;;;;9.82;8.32;;;13.90;99.90;;;;;;5072836;28;20384;-65
2021/04/12 12:37:26;;;;;;;12.55;9.05;;;13.90;99.90;;;;;;5064495;28;20064;-65
2021/04/12 12:39:56;;;;;;;12.20;9.50;;;13.90;99.90;;;;;;5071101;28;20060;-64
2021/04/12 12:42:40;;;;;;;10.55;9.18;;;13.80;99.90;;;;;;5072515;28;20384;-66
2021/04/12 12:45:22;;;;;;;13.45;9.50;;;14.00;99.90;;;;;;5072667;28;20020;-65
2021/04/12 12:47:54;;;;;;;13.00;10.10;;;13.90;99.90;;;;;;5075541;28;20075;-64
2021/04/12 12:50:30;;;;;;;14.15;9.35;;;13.90;99.90;;;;;;5076400;28;20046;-64
2021/04/12 12:53:16;;;;;;;14.63;9.10;;;13.80;99.90;;;;;;5076212;28;20028;-65
2021/04/12 12:55:57;;;;;;;11.38;9.07;;;13.80;99.90;;;;;;5076374;28;20104;-65
2021/04/12 12:58:28;;;;;;;13.25;9.90;;;13.90;99.90;;;;;;5076476;28;20039;-64
2021/04/12 13:01:09;;;;;;;10.68;9.57;;;13.80;99.90;;;;;;5076166;28;20054;-64
2021/04/12 13:03:38;;;;;;;10.60;8.57;;;13.80;99.90;;;;;;5076124;28;20520;-64
2021/04/12 13:06:31;;;;;;;12.93;9.38;;;13.80;99.90;;;;;;5076001;28;20095;-64
2021/04/12 13:09:13;;;;;;;10.32;8.75;;;13.80;99.90;;;;;;5076106;28;20495;-64
2021/04/12 13:11:59;;;;;;;13.75;9.10;;;13.70;99.90;;;;;;5076012;28;20385;-64
2021/04/12 13:14:49;;;;;;;11.48;9.13;;;13.70;99.90;;;;;;5075985;28;20029;-64
2021/04/12 13:17:37;;;;;;;15.07;9.37;;;13.60;99.90;;;;;;5075888;28;20443;-64
2021/04/12 13:20:17;;;;;;;14.18;9.30;;;13.50;99.90;;;;;;5075877;28;20029;-64
2021/04/12 13:22:48;;;;;;;15.13;9.50;;;13.50;99.90;;;;;;5075779;28;20021;-66
2021/04/12 13:25:29;;;;;;;10.60;9.50;;;13.50;99.90;;;;;;5075736;28;20385;-63
2021/04/12 13:28:15;;;;;;;12.75;9.52;;;13.30;99.90;;;;;;5075717;28;20120;-65
2021/04/12 13:31:05;;;;;;;13.48;9.50;;;13.30;99.90;;;;;;5075792;28;20062;-64
2021/04/12 13:33:41;;;;;;;11.80;10.60;;;13.30;99.90;;;;;;5073808;28;20086;-65
2021/04/12 13:36:17;;;;;;;9.60;8.70;;;13.30;99.90;;;;;;5075593;28;20020;-65
2021/04/12 13:38:49;;;;;;;9.88;8.95;;;13.30;99.90;;;;;;5075298;28;20123;-65
2021/04/12 13:41:31;;;;;;;10.80;8.93;;;13.30;99.90;;;;;;5075410;28;20021;-64
2021/04/12 13:44:10;;;;;;;8.90;8.00;;;13.30;99.90;;;;;;5075467;28;20044;-64
2021/04/12 13:46:53;;;;;;;48.60;15.07;;;13.30;99.90;;;;;;5075721;28;20020;-63
2021/04/12 13:49:44;;;;;;;11.13;8.68;;;13.20;99.90;;;;;;5075443;28;20020;-64
2021/04/12 13:52:30;;;;;;;11.75;8.93;;;13.20;99.90;;;;;;5075265;28;20538;-65
2021/04/12 13:55:11;;;;;;;10.43;8.88;;;13.20;99.90;;;;;;5075316;28;20020;-64
2021/04/12 13:58:12;;;;;;;11.85;9.02;;;13.20;99.90;;;;;;5074641;28;20025;-65
2021/04/12 14:01:06;;;;;;;25.58;11.23;;;13.10;99.90;;;;;;5075269;28;20074;-64
2021/04/12 14:03:42;;;;;;;17.45;9.90;;;13.10;99.90;;;;;;5075221;28;20039;-65
2021/04/12 14:06:21;;;;;;;15.13;9.75;;;13.00;99.90;;;;;;5074984;28;20021;-65
2021/04/12 14:08:53;;;;;;;12.77;9.98;;;12.90;99.90;;;;;;5074979;28;20473;-65
2021/04/12 14:11:30;;;;;;;11.25;9.40;;;12.80;99.90;;;;;;5074870;28;20473;-65
2021/04/12 14:14:21;;;;;;;14.15;9.70;;;12.80;99.90;;;;;;5074895;28;20384;-65
2021/04/12 14:17:04;;;;;;;12.68;9.27;;;12.70;99.90;;;;;;5074802;28;20465;-65
2021/04/12 14:19:39;;;;;;;11.45;9.50;;;12.70;99.90;;;;;;5074908;28;20388;-62
2021/04/12 14:22:33;;;;;;;11.38;10.02;;;12.70;99.90;;;;;;5074749;28;20097;-63
2021/04/12 14:25:15;;;;;;;10.82;9.63;;;12.60;99.90;;;;;;5074593;28;20027;-64
2021/04/12 14:27:44;;;;;;;12.07;9.38;;;12.60;99.90;;;;;;5074581;28;20020;-63
2021/04/12 14:30:23;;;;;;;12.52;9.07;;;12.60;99.90;;;;;;5074509;28;20361;-65